Time;durP1;ratioP1;P1;durP2;ratioP2;P2;SDS_P1;SDS_P2;PMS_P1;PMS_P2;Temp;Humidity;BMP_temperature;BMP_pressure;BME280_temperature;BME280_humidity;BME280_pressure;Samples;Min_cycle;Max_cycle;Signal;HPM_P1;HPM_P2
2021/07/21 00:00:29;;;;;;;11.10;8.73;;;;;;;20.80;64.83;96736.69;4976201;28;20189;-60
2021/07/21 00:02:56;;;;;;;9.03;8.13;;;;;;;20.83;64.70;96740.69;4975858;28;20181;-60
2021/07/21 00:05:25;;;;;;;11.13;8.00;;;;;;;20.92;64.16;96745.16;4986985;28;20449;-58
2021/07/21 00:07:52;;;;;;;13.13;8.60;;;;;;;20.87;64.76;96747.06;4995436;28;20994;-58
2021/07/21 00:10:20;;;;;;;8.83;7.50;;;;;;;20.86;65.23;96746.28;4995415;28;20422;-60
2021/07/21 00:15:32;;;;;;;11.13;7.50;;;;;;;20.67;65.81;96744.56;4995788;28;20494;-60
2021/07/21 00:18:03;;;;;;;8.60;7.70;;;;;;;20.74;66.00;96745.84;4986263;28;20422;-60
2021/07/21 00:20:31;;;;;;;11.57;7.87;;;;;;;20.75;65.39;96741.28;4975962;28;20414;-60
2021/07/21 00:22:57;;;;;;;8.13;7.33;;;;;;;20.72;65.26;96741.84;4975551;28;20425;-60
2021/07/21 00:25:23;;;;;;;9.47;8.27;;;;;;;20.77;64.89;96741.81;4975707;28;20433;-59
2021/07/21 00:27:49;;;;;;;11.47;9.00;;;;;;;20.83;64.55;96741.50;4975355;28;20962;-59
2021/07/21 00:30:18;;;;;;;11.00;8.13;;;;;;;20.70;65.50;96734.13;4975541;28;20174;-59
2021/07/21 00:32:45;;;;;;;12.07;8.70;;;;;;;20.78;65.16;96735.41;4983975;28;20476;-60
2021/07/21 00:35:14;;;;;;;8.53;7.63;;;;;;;20.69;65.97;96732.50;4982970;28;20577;-60
2021/07/21 00:37:40;;;;;;;9.87;7.87;;;;;;;20.73;65.59;96730.06;4975610;28;20444;-60
2021/07/21 00:40:08;;;;;;;9.30;7.77;;;;;;;20.68;66.14;96724.78;4975378;28;20413;-59
2021/07/21 00:42:33;;;;;;;9.00;8.10;;;;;;;20.61;65.67;96722.44;4975454;28;20189;-60
2021/07/21 00:44:59;;;;;;;10.80;8.00;;;;;;;20.60;65.38;96725.41;4974648;28;20509;-60
2021/07/21 00:47:24;;;;;;;9.20;7.90;;;;;;;20.45;65.84;96720.97;4983309;28;20244;-57
2021/07/21 00:49:49;;;;;;;8.43;7.63;;;;;;;20.33;65.97;96718.66;4993469;28;20180;-59
2021/07/21 00:52:16;;;;;;;8.63;7.73;;;;;;;20.25;66.25;96715.78;4994753;28;20180;-60
2021/07/21 00:54:42;;;;;;;8.80;7.90;;;;;;;20.26;66.74;96712.03;4994381;28;20656;-60
2021/07/21 00:57:09;;;;;;;9.43;7.37;;;;;;;20.33;67.04;96712.50;4994636;28;20416;-59
2021/07/21 00:59:35;;;;;;;8.80;7.90;;;;;;;20.31;67.04;96714.66;4994527;28;20176;-60
2021/07/21 01:02:01;;;;;;;8.63;7.73;;;;;;;20.25;67.01;96708.59;4987141;28;20421;-58
2021/07/21 01:04:29;;;;;;;9.30;8.30;;;;;;;20.21;67.63;96718.22;4974809;28;20186;-60
2021/07/21 01:06:55;;;;;;;9.80;8.53;;;;;;;20.08;67.46;96712.66;4975173;28;20915;-59
2021/07/21 01:09:21;;;;;;;10.33;8.60;;;;;;;20.13;66.87;96710.75;4974772;28;20823;-59
2021/07/21 01:11:56;;;;;;;9.33;7.60;;;;;;;20.07;67.65;96713.75;4974911;28;20892;-59
2021/07/21 01:14:28;;;;;;;10.10;7.83;;;;;;;20.07;67.31;96722.56;4974561;28;20197;-58
2021/07/21 01:16:59;;;;;;;10.70;7.60;;;;;;;20.02;67.53;96719.91;4982606;28;20428;-60
2021/07/21 01:19:51;;;;;;;10.07;7.50;;;;;;;19.95;67.88;96718.59;4994214;28;20409;-58
2021/07/21 01:22:25;;;;;;;9.93;7.83;;;;;;;19.78;68.94;96718.97;4994534;28;20416;-58
2021/07/21 01:25:12;;;;;;;9.23;7.80;;;;;;;19.82;69.17;96711.22;4992724;28;20781;-58
2021/07/21 01:27:50;;;;;;;8.40;7.20;;;;;;;19.84;68.95;96715.19;4994175;28;20448;-58
2021/07/21 01:30:16;;;;;;;9.43;8.43;;;;;;;19.86;69.18;96710.38;4992084;28;20451;-59
2021/07/21 01:32:49;;;;;;;8.47;7.53;;;;;;;19.79;69.23;96711.75;4986240;28;20413;-60
2021/07/21 01:35:29;;;;;;;13.23;8.57;;;;;;;19.73;69.06;96718.22;4980991;28;20429;-59
2021/07/21 01:37:58;;;;;;;9.50;7.70;;;;;;;19.70;69.19;96713.41;4974745;28;20410;-56
2021/07/21 01:40:28;;;;;;;10.93;8.17;;;;;;;19.61;70.24;96707.84;4974779;28;20413;-60
2021/07/21 01:42:57;;;;;;;8.57;7.77;;;;;;;19.64;70.09;96714.53;4974381;28;20907;-58
2021/07/21 01:45:26;;;;;;;10.47;8.20;;;;;;;19.64;70.04;96715.28;4974471;28;20484;-60
2021/07/21 01:47:51;;;;;;;12.30;7.53;;;;;;;19.60;70.24;96711.59;4993191;28;20456;-58
2021/07/21 01:50:18;;;;;;;12.33;8.07;;;;;;;19.56;70.19;96712.41;4998286;28;20442;-58
2021/07/21 01:52:48;;;;;;;10.47;8.63;;;;;;;19.52;70.40;96714.03;4997726;28;20628;-60
2021/07/21 01:55:16;;;;;;;9.57;8.50;;;;;;;19.47;69.88;96701.53;4997784;28;20436;-59
2021/07/21 01:57:43;;;;;;;9.50;7.17;;;;;;;19.48;70.13;96705.78;4998063;28;20559;-60
2021/07/21 02:00:12;;;;;;;9.90;7.80;;;;;;;19.36;71.00;96706.09;4996585;28;20494;-59
2021/07/21 02:02:40;;;;;;;8.80;7.73;;;;;;;19.39;69.77;96715.41;4982144;28;20433;-59
2021/07/21 02:05:06;;;;;;;11.37;9.20;;;;;;;19.43;69.51;96711.13;4977051;28;20443;-58
2021/07/21 02:07:34;;;;;;;8.47;7.57;;;;;;;19.40;69.75;96709.78;4978348;28;20456;-58
2021/07/21 02:10:01;;;;;;;9.13;7.37;;;;;;;19.30;70.09;96709.00;4976971;28;20774;-58
2021/07/21 02:12:27;;;;;;;9.87;8.33;;;;;;;19.30;70.49;96706.34;4978201;28;20853;-60
2021/07/21 02:14:52;;;;;;;7.50;6.60;;;;;;;19.33;70.59;96701.31;4977701;28;20467;-60
2021/07/21 02:17:19;;;;;;;9.50;8.10;;;;;;;19.26;70.41;96697.28;4992312;28;20312;-60
2021/07/21 02:19:47;;;;;;;8.63;7.60;;;;;;;19.20;70.79;96701.06;4997636;28;20220;-60
2021/07/21 02:22:16;;;;;;;13.40;7.87;;;;;;;19.13;70.51;96700.56;4997369;28;20405;-58
2021/07/21 02:24:43;;;;;;;8.80;7.70;;;;;;;19.13;70.54;96708.53;4996918;28;20432;-59
2021/07/21 02:27:09;;;;;;;12.53;7.60;;;;;;;19.04;71.04;96702.94;4997684;28;20408;-60
2021/07/21 02:29:34;;;;;;;10.67;7.50;;;;;;;19.11;71.07;96700.81;4997167;28;20456;-60
2021/07/21 02:32:29;;;;;;;9.53;7.67;;;;;;;19.07;71.34;96694.44;4982974;28;20178;-60
2021/07/21 02:34:55;;;;;;;12.80;7.90;;;;;;;19.06;70.89;96700.81;4984528;28;20216;-59
2021/07/21 02:37:21;;;;;;;9.10;8.20;;;;;;;19.08;70.95;96701.34;4997037;28;20887;-59
2021/07/21 02:39:49;;;;;;;8.00;7.20;;;;;;;18.92;72.18;96701.66;4997481;28;20161;-59
2021/07/21 02:42:15;;;;;;;9.67;8.40;;;;;;;19.03;71.24;96700.56;4997353;28;20408;-60
2021/07/21 02:44:43;;;;;;;9.40;7.90;;;;;;;19.04;70.70;96702.94;4996568;28;20433;-59
2021/07/21 02:47:09;;;;;;;8.53;7.60;;;;;;;18.93;71.85;96701.38;4994449;28;20970;-60
2021/07/21 02:49:35;;;;;;;11.03;9.00;;;;;;;18.93;71.41;96703.25;4996843;28;20521;-60
2021/07/21 02:52:22;;;;;;;8.10;7.30;;;;;;;18.91;71.66;96706.19;4996834;28;20809;-58
2021/07/21 02:55:00;;;;;;;9.40;7.50;;;;;;;18.80;72.12;96699.28;4996513;28;20251;-59
2021/07/21 02:57:44;;;;;;;11.27;8.00;;;;;;;18.76;72.25;96703.56;4994893;28;20467;-58
2021/07/21 03:00:12;;;;;;;9.33;8.33;;;;;;;18.73;72.35;96705.97;4993262;28;20421;-58
2021/07/21 03:02:39;;;;;;;9.43;8.10;;;;;;;18.60;72.93;96707.31;4975541;28;20429;-59
2021/07/21 03:05:09;;;;;;;8.20;7.37;;;;;;;18.64;73.11;96707.56;4977091;28;20433;-58
2021/07/21 03:07:38;;;;;;;11.53;7.90;;;;;;;18.66;72.77;96705.44;4977153;28;20438;-60
2021/07/21 03:10:06;;;;;;;9.20;7.77;;;;;;;18.65;72.76;96707.28;4977258;28;20473;-58
2021/07/21 03:12:36;;;;;;;8.30;7.50;;;;;;;18.45;73.26;96705.44;4977007;28;20798;-60
2021/07/21 03:15:03;;;;;;;7.80;7.10;;;;;;;18.38;73.62;96710.22;4981370;28;20437;-60
2021/07/21 03:17:35;;;;;;;9.93;8.10;;;;;;;18.38;74.03;96706.75;4996574;28;20417;-60
2021/07/21 03:20:01;;;;;;;9.20;8.20;;;;;;;18.37;74.23;96713.13;4996427;28;20454;-58
2021/07/21 03:22:27;;;;;;;8.77;7.87;;;;;;;18.45;74.03;96713.44;4996440;28;20451;-60
2021/07/21 03:24:54;;;;;;;9.40;8.43;;;;;;;18.48;73.10;96710.22;4995834;28;20193;-59
2021/07/21 03:27:20;;;;;;;9.00;8.10;;;;;;;18.44;73.55;96709.16;4996175;28;20758;-58
2021/07/21 03:29:50;;;;;;;9.10;8.20;;;;;;;18.48;73.59;96713.97;4991638;28;20523;-58
2021/07/21 03:32:22;;;;;;;11.73;9.33;;;;;;;18.51;72.79;96716.09;4977182;28;20397;-58
2021/07/21 03:34:49;;;;;;;10.10;7.60;;;;;;;18.42;73.04;96721.91;4976401;28;20920;-60
2021/07/21 03:37:15;;;;;;;9.13;8.20;;;;;;;18.43;72.82;96725.38;4976760;28;20433;-60
2021/07/21 03:39:42;;;;;;;11.37;8.90;;;;;;;18.21;73.24;96712.31;4976743;28;20413;-59
2021/07/21 03:42:08;;;;;;;9.17;8.07;;;;;;;18.18;73.51;96715.50;4976506;28;20440;-58
2021/07/21 03:44:34;;;;;;;8.23;7.10;;;;;;;18.12;73.94;96726.38;4979053;28;20507;-58
2021/07/21 03:47:00;;;;;;;8.53;7.30;;;;;;;18.15;73.71;96715.25;4994611;28;20419;-60
2021/07/21 03:49:27;;;;;;;11.10;8.60;;;;;;;18.21;73.54;96727.47;4995849;28;20276;-58
2021/07/21 03:51:53;;;;;;;9.10;7.83;;;;;;;18.14;73.50;96735.72;4995900;28;20401;-58
2021/07/21 03:54:19;;;;;;;9.50;7.30;;;;;;;18.08;73.58;96736.75;4995277;28;20436;-60
2021/07/21 03:56:47;;;;;;;8.70;7.90;;;;;;;18.03;74.10;96730.63;4995891;28;20174;-59
2021/07/21 03:59:17;;;;;;;8.80;7.47;;;;;;;18.01;74.40;96736.22;4991675;28;20409;-59
2021/07/21 04:01:44;;;;;;;13.07;8.17;;;;;;;18.04;74.81;96734.91;4976326;28;20402;-58
2021/07/21 04:04:14;;;;;;;9.43;8.50;;;;;;;18.04;74.84;96738.38;4975622;28;20434;-60
2021/07/21 04:06:40;;;;;;;8.53;7.63;;;;;;;18.10;74.22;96737.28;4976133;28;20472;-60
2021/07/21 04:09:08;;;;;;;13.60;7.77;;;;;;;18.06;74.80;96743.41;4991188;28;20544;-60
2021/07/21 04:11:35;;;;;;;9.00;8.10;;;;;;;18.12;74.10;96747.66;4994134;28;20759;-60
2021/07/21 04:14:05;;;;;;;9.40;8.10;;;;;;;18.00;74.52;96745.28;4994881;28;20436;-59
2021/07/21 04:16:32;;;;;;;10.03;8.00;;;;;;;18.00;74.87;96739.94;4995515;28;20447;-58
2021/07/21 04:18:58;;;;;;;11.17;8.67;;;;;;;17.98;75.24;96735.94;4995279;28;20887;-58
2021/07/21 04:21:24;;;;;;;7.90;7.10;;;;;;;18.00;75.20;96742.63;4992244;28;20512;-60
2021/07/21 04:23:51;;;;;;;9.30;8.30;;;;;;;17.98;74.96;96742.06;4993473;28;20200;-60
2021/07/21 04:26:17;;;;;;;14.03;8.03;;;;;;;17.98;74.80;96746.59;4995135;28;20412;-60
2021/07/21 04:28:43;;;;;;;8.80;7.80;;;;;;;17.97;74.83;96748.44;4994949;28;20503;-59
2021/07/21 04:31:09;;;;;;;8.40;7.57;;;;;;;17.99;74.86;96748.19;4995099;28;20417;-58
2021/07/21 04:33:35;;;;;;;10.53;8.80;;;;;;;17.99;75.49;96748.97;4994490;28;20423;-59
2021/07/21 04:36:01;;;;;;;11.50;8.37;;;;;;;17.99;75.21;96743.66;4986732;28;20820;-59
2021/07/21 04:38:28;;;;;;;11.03;8.60;;;;;;;18.04;74.87;96751.66;4975630;28;20166;-60
2021/07/21 04:40:55;;;;;;;9.83;7.77;;;;;;;17.92;74.98;96752.94;4975430;28;20414;-58
2021/07/21 04:43:21;;;;;;;8.60;7.70;;;;;;;17.88;75.74;96759.88;4975176;28;20413;-59
2021/07/21 04:45:49;;;;;;;9.23;8.27;;;;;;;17.95;75.91;96753.25;4993149;28;20923;-59
2021/07/21 04:48:14;;;;;;;10.13;7.63;;;;;;;18.01;75.56;96752.19;4994531;28;20204;-60
2021/07/21 04:50:42;;;;;;;12.00;8.03;;;;;;;18.09;75.62;96753.53;4986826;28;20779;-60
2021/07/21 04:53:10;;;;;;;10.30;8.00;;;;;;;18.15;75.42;96755.13;4975399;28;20181;-60
2021/07/21 04:55:36;;;;;;;9.93;7.83;;;;;;;18.08;75.82;96762.59;4975219;28;20452;-60
2021/07/21 04:58:02;;;;;;;10.77;8.03;;;;;;;18.10;75.89;96761.25;4975056;28;20424;-58
2021/07/21 05:00:27;;;;;;;10.10;7.77;;;;;;;18.10;76.24;96766.56;4975252;28;20405;-60
2021/07/21 05:02:52;;;;;;;13.03;8.83;;;;;;;18.21;75.78;96764.72;4974784;28;20167;-58
2021/07/21 05:05:18;;;;;;;9.30;8.30;;;;;;;18.21;75.96;96760.19;4981214;28;20711;-59
2021/07/21 05:07:43;;;;;;;9.90;8.53;;;;;;;18.24;75.98;96766.88;4992481;28;20170;-60
2021/07/21 05:10:09;;;;;;;8.53;7.63;;;;;;;18.25;76.07;96769.25;4975045;28;20181;-60
2021/07/21 05:12:34;;;;;;;9.40;8.47;;;;;;;18.23;76.48;96765.25;4974778;28;20171;-60
2021/07/21 05:15:00;;;;;;;11.50;9.10;;;;;;;18.33;76.63;96774.03;4974795;28;20484;-60
2021/07/21 05:17:25;;;;;;;11.80;9.30;;;;;;;18.35;76.61;96779.91;4974699;28;20174;-60
2021/07/21 05:19:51;;;;;;;10.93;9.43;;;;;;;18.39;77.12;96770.34;4974256;28;20301;-59
2021/07/21 05:22:16;;;;;;;10.80;8.87;;;;;;;18.45;77.33;96769.31;4974430;28;20187;-59
2021/07/21 05:24:41;;;;;;;8.90;8.00;;;;;;;18.42;77.63;96777.81;4982334;28;20194;-58
2021/07/21 05:27:07;;;;;;;11.70;8.77;;;;;;;18.48;77.57;96774.09;4974806;28;20169;-60
2021/07/21 05:29:32;;;;;;;10.53;9.20;;;;;;;18.59;77.85;96777.56;4974568;28;20209;-60
2021/07/21 05:31:58;;;;;;;12.10;9.40;;;;;;;18.68;77.92;96781.28;4974723;28;20170;-60
2021/07/21 05:34:24;;;;;;;11.13;10.00;;;;;;;18.74;78.30;96779.44;4974207;28;20209;-59
2021/07/21 05:36:49;;;;;;;13.20;10.03;;;;;;;18.79;77.96;96780.22;4974640;28;20489;-60
2021/07/21 05:39:16;;;;;;;10.80;9.70;;;;;;;18.82;78.34;96786.91;4983213;28;20664;-58
2021/07/21 05:41:41;;;;;;;10.70;8.90;;;;;;;18.85;78.32;96781.84;4994024;28;20166;-60
2021/07/21 05:44:07;;;;;;;11.57;9.90;;;;;;;18.85;78.30;96791.69;4993509;28;21039;-60
2021/07/21 05:46:32;;;;;;;12.63;9.83;;;;;;;18.98;78.39;96793.81;4993839;28;20185;-58
2021/07/21 05:48:58;;;;;;;14.67;9.90;;;;;;;18.90;79.47;96792.47;4993850;28;20532;-58
2021/07/21 05:51:23;;;;;;;11.57;9.90;;;;;;;19.02;79.09;96798.31;4994005;28;20702;-59
2021/07/21 05:53:49;;;;;;;13.17;10.50;;;;;;;19.08;78.77;96796.44;4985797;28;20190;-58
2021/07/21 05:56:15;;;;;;;12.63;9.67;;;;;;;19.15;78.44;96794.34;4974503;28;20166;-58
2021/07/21 05:58:40;;;;;;;11.63;10.13;;;;;;;19.30;77.88;96794.28;4974627;28;20166;-58
2021/07/21 06:01:05;;;;;;;12.90;10.73;;;;;;;19.18;78.49;96793.78;4974458;28;20413;-58
2021/07/21 06:03:31;;;;;;;12.30;10.07;;;;;;;19.30;78.29;96799.63;4973921;28;20174;-59
2021/07/21 06:05:57;;;;;;;14.60;10.00;;;;;;;19.32;78.30;96803.66;4974596;28;20529;-60
2021/07/21 06:08:23;;;;;;;11.50;9.40;;;;;;;19.34;78.58;96806.84;4980131;28;20227;-60
2021/07/21 06:10:49;;;;;;;11.70;9.43;;;;;;;19.41;77.88;96807.38;4978482;28;20233;-60
2021/07/21 06:13:15;;;;;;;12.50;9.27;;;;;;;19.47;77.75;96810.81;4974081;28;20418;-60
2021/07/21 06:15:40;;;;;;;10.80;9.30;;;;;;;19.57;77.44;96818.78;4974365;28;20197;-59
2021/07/21 06:18:06;;;;;;;11.80;9.53;;;;;;;19.64;75.68;96821.97;4974238;28;20205;-60
2021/07/21 06:20:32;;;;;;;11.43;10.20;;;;;;;19.68;75.70;96825.69;4974259;28;20525;-60
2021/07/21 06:22:57;;;;;;;13.73;9.80;;;;;;;19.72;76.29;96833.94;4982169;28;20184;-60
2021/07/21 06:25:23;;;;;;;12.40;10.00;;;;;;;19.81;76.63;96816.31;4993628;28;20196;-58
2021/07/21 06:27:50;;;;;;;11.50;9.70;;;;;;;19.84;77.26;96827.22;4993740;28;20592;-59
2021/07/21 06:30:15;;;;;;;11.63;10.40;;;;;;;19.80;78.60;96828.84;4993760;28;20165;-59
2021/07/21 06:32:41;;;;;;;11.60;10.40;;;;;;;19.86;78.28;96833.09;4993316;28;20412;-59
2021/07/21 06:35:08;;;;;;;12.17;10.00;;;;;;;19.87;78.17;96836.56;4996031;28;20228;-59
2021/07/21 06:37:33;;;;;;;11.37;10.13;;;;;;;19.94;78.41;96839.75;4989147;28;20178;-60
2021/07/21 06:39:59;;;;;;;10.63;9.50;;;;;;;20.01;78.28;96840.25;4991655;28;20424;-58
2021/07/21 06:42:25;;;;;;;12.63;10.60;;;;;;;20.06;77.93;96841.03;4996990;28;20264;-59
2021/07/21 06:44:52;;;;;;;12.30;8.97;;;;;;;20.09;78.10;96837.81;4996546;28;20189;-59
2021/07/21 06:47:17;;;;;;;12.40;9.70;;;;;;;20.14;77.85;96842.34;4996756;28;20459;-59
2021/07/21 06:49:42;;;;;;;10.87;9.73;;;;;;;19.97;75.67;96848.00;4995573;28;20484;-60
2021/07/21 06:52:08;;;;;;;11.23;9.73;;;;;;;19.95;76.08;96842.13;4996257;28;20216;-58
2021/07/21 06:54:33;;;;;;;11.10;9.50;;;;;;;20.09;76.47;96853.03;4996196;28;20260;-59
2021/07/21 06:56:59;;;;;;;10.57;9.57;;;;;;;20.22;76.74;96858.59;4992474;28;20615;-59
2021/07/21 06:59:27;;;;;;;11.67;9.90;;;;;;;20.28;76.68;96852.16;4989650;28;20204;-58
2021/07/21 07:01:53;;;;;;;10.93;9.80;;;;;;;20.40;76.35;96859.84;4989206;28;20591;-59
2021/07/21 07:04:18;;;;;;;11.30;10.20;;;;;;;20.42;76.19;96858.50;4983130;28;20436;-60
2021/07/21 07:06:46;;;;;;;10.83;9.70;;;;;;;20.47;75.71;96857.69;5016223;28;20173;-60
2021/07/21 07:09:12;;;;;;;12.73;10.17;;;;;;;20.47;74.50;96863.03;5014942;28;20207;-58
2021/07/21 07:11:38;;;;;;;12.10;10.20;;;;;;;20.45;74.36;96865.16;5016215;28;20412;-56
2021/07/21 07:14:05;;;;;;;11.27;10.07;;;;;;;20.49;75.19;96864.31;5015608;28;20184;-58
2021/07/21 07:16:30;;;;;;;12.33;10.10;;;;;;;20.52;75.21;96863.00;5000905;28;20417;-59
2021/07/21 07:18:56;;;;;;;11.30;10.20;;;;;;;20.40;75.47;96859.84;4977262;28;20919;-59
2021/07/21 07:21:22;;;;;;;11.30;9.50;;;;;;;20.56;75.48;96863.22;4996379;28;20586;-59
2021/07/21 07:23:50;;;;;;;17.60;10.77;;;;;;;20.44;75.97;96864.38;4995771;28;20193;-59
2021/07/21 07:26:16;;;;;;;12.07;10.73;;;;;;;20.61;75.00;96865.88;4996449;28;20433;-59
2021/07/21 07:28:44;;;;;;;14.53;10.50;;;;;;;20.57;73.96;96859.47;4996281;28;20499;-59
2021/07/21 07:31:09;;;;;;;12.53;9.30;;;;;;;20.71;75.52;96858.59;4996121;28;20883;-60
2021/07/21 07:33:36;;;;;;;10.10;8.77;;;;;;;20.76;76.20;96861.25;4998338;28;20427;-58
2021/07/21 07:36:01;;;;;;;13.23;10.13;;;;;;;20.83;75.47;96858.25;4996053;28;20211;-60
2021/07/21 07:38:27;;;;;;;10.97;9.60;;;;;;;20.96;74.94;96868.31;4979739;28;20873;-58
2021/07/21 07:40:53;;;;;;;11.23;10.03;;;;;;;20.96;75.48;96855.72;4976679;28;20186;-60
2021/07/21 07:43:19;;;;;;;16.40;10.37;;;;;;;20.91;73.54;96858.44;4976146;28;20332;-58
2021/07/21 07:45:44;;;;;;;11.10;9.80;;;;;;;21.03;74.24;96852.78;4976541;28;20536;-59
2021/07/21 07:48:09;;;;;;;12.93;9.90;;;;;;;21.10;73.90;96847.91;4976454;28;20205;-60
2021/07/21 07:50:35;;;;;;;11.30;10.10;;;;;;;21.23;72.76;96855.28;4976453;28;20572;-60
2021/07/21 07:53:00;;;;;;;12.63;9.80;;;;;;;21.16;73.10;96855.59;4990074;28;20205;-60
2021/07/21 07:55:26;;;;;;;11.90;9.83;;;;;;;21.27;71.47;96854.44;4995658;28;20212;-58
2021/07/21 07:57:51;;;;;;;13.53;10.80;;;;;;;21.36;71.67;96857.31;4995741;28;20180;-59
2021/07/21 08:00:17;;;;;;;9.63;8.60;;;;;;;21.32;70.88;96851.72;4995584;28;20184;-60
2021/07/21 08:02:43;;;;;;;10.57;9.47;;;;;;;21.45;70.58;96861.75;4995423;28;20264;-59
2021/07/21 08:05:09;;;;;;;11.13;10.10;;;;;;;21.56;71.00;96859.78;4995572;28;20531;-60
2021/07/21 08:07:35;;;;;;;11.00;9.60;;;;;;;21.58;69.33;96854.94;4982506;28;20213;-60
2021/07/21 08:10:02;;;;;;;13.87;9.53;;;;;;;21.69;71.03;96848.41;4976070;28;20457;-58
2021/07/21 08:12:27;;;;;;;12.60;10.43;;;;;;;21.82;70.56;96845.09;4975896;28;20406;-59
2021/07/21 08:14:52;;;;;;;10.77;9.70;;;;;;;21.55;68.77;96846.69;4975632;28;20792;-59
2021/07/21 08:17:18;;;;;;;9.93;8.80;;;;;;;21.88;68.43;96851.19;4976010;28;20182;-60
2021/07/21 08:19:44;;;;;;;10.60;9.50;;;;;;;21.95;68.67;96844.41;4975798;28;20230;-60
2021/07/21 08:22:11;;;;;;;11.70;10.03;;;;;;;21.94;67.53;96848.16;4986943;28;20666;-58
2021/07/21 08:24:36;;;;;;;12.67;10.00;;;;;;;22.04;68.01;96847.25;4994926;28;20189;-58
2021/07/21 08:27:02;;;;;;;9.60;8.57;;;;;;;22.22;67.18;96844.63;4995247;28;20420;-59
2021/07/21 08:29:28;;;;;;;12.60;9.37;;;;;;;22.22;67.19;96844.63;4995013;28;20200;-60
2021/07/21 08:31:53;;;;;;;10.90;9.37;;;;;;;22.28;67.05;96848.03;4995215;28;20176;-59
2021/07/21 08:34:19;;;;;;;9.70;8.47;;;;;;;22.40;66.17;96843.84;4983561;28;20437;-58
2021/07/21 08:36:44;;;;;;;11.00;9.57;;;;;;;22.45;66.07;96846.44;4989491;28;20256;-59
2021/07/21 08:39:12;;;;;;;10.70;9.70;;;;;;;22.51;65.77;96844.50;4996305;28;20543;-59
2021/07/21 08:41:39;;;;;;;10.27;9.20;;;;;;;22.57;65.66;96848.75;4994454;28;20231;-60
2021/07/21 08:44:07;;;;;;;9.40;8.50;;;;;;;22.62;66.29;96847.84;5010682;28;20493;-59
2021/07/21 08:46:36;;;;;;;10.07;9.07;;;;;;;22.66;65.99;96848.88;5011022;28;20427;-58
2021/07/21 08:49:01;;;;;;;11.43;9.90;;;;;;;22.51;65.42;96844.50;5010434;28;20447;-60
2021/07/21 08:51:27;;;;;;;10.80;9.80;;;;;;;22.69;64.67;96846.41;5010936;28;20462;-59
2021/07/21 08:53:53;;;;;;;10.87;9.83;;;;;;;22.78;64.95;96847.34;4992858;28;20576;-59
2021/07/21 08:56:19;;;;;;;10.00;9.00;;;;;;;22.94;65.53;96851.38;4990454;28;20532;-58
2021/07/21 08:58:48;;;;;;;8.90;8.00;;;;;;;23.09;64.60;96850.34;4991082;28;20177;-59
2021/07/21 09:01:16;;;;;;;9.93;8.93;;;;;;;23.06;62.97;96848.28;4990521;28;20524;-60
2021/07/21 09:03:41;;;;;;;10.10;9.10;;;;;;;23.21;63.93;96851.50;4990777;28;20460;-59
2021/07/21 09:06:07;;;;;;;9.40;8.50;;;;;;;23.30;63.41;96848.94;4990976;28;20838;-58
2021/07/21 09:08:34;;;;;;;15.13;10.20;;;;;;;23.22;63.61;96847.72;5000303;28;20216;-59
2021/07/21 09:11:01;;;;;;;11.83;9.43;;;;;;;23.44;63.47;96852.50;5010494;28;20184;-58
2021/07/21 09:13:26;;;;;;;11.27;9.60;;;;;;;23.48;61.18;96851.59;5009552;28;20509;-58
2021/07/21 09:15:52;;;;;;;9.83;8.83;;;;;;;23.50;60.71;96848.59;5010491;28;20553;-57
2021/07/21 09:18:18;;;;;;;10.70;9.63;;;;;;;23.64;61.49;96843.28;5010682;28;20259;-58
2021/07/21 09:20:49;;;;;;;9.93;8.90;;;;;;;23.46;60.93;96850.31;5010575;28;20187;-58
2021/07/21 09:23:14;;;;;;;11.07;9.97;;;;;;;23.43;60.62;96849.00;4996917;28;20420;-58
2021/07/21 09:25:42;;;;;;;10.43;9.40;;;;;;;23.67;60.47;96846.16;4990154;28;20482;-57
2021/07/21 09:28:10;;;;;;;11.37;10.17;;;;;;;23.43;61.38;96842.81;4990843;28;20364;-58
2021/07/21 09:30:40;;;;;;;9.83;8.83;;;;;;;23.71;61.05;96847.16;4994662;28;20424;-58
2021/07/21 09:33:08;;;;;;;11.27;9.33;;;;;;;23.58;60.53;96852.50;5009957;28;20461;-58
2021/07/21 09:35:44;;;;;;;10.87;9.43;;;;;;;23.59;58.69;96849.50;5010211;28;20438;-59
2021/07/21 09:38:15;;;;;;;10.77;9.27;;;;;;;23.82;60.02;96843.19;5007670;28;20426;-58
2021/07/21 09:40:43;;;;;;;9.33;8.37;;;;;;;23.72;58.55;96848.75;5010232;28;20416;-58
2021/07/21 09:43:14;;;;;;;9.97;8.87;;;;;;;23.86;59.07;96846.09;5009886;28;20419;-59
2021/07/21 09:45:43;;;;;;;10.10;9.10;;;;;;;24.12;58.19;96848.00;5000873;28;21217;-59
2021/07/21 09:48:09;;;;;;;9.83;8.80;;;;;;;24.31;57.60;96848.66;4990424;28;20464;-59
2021/07/21 09:50:38;;;;;;;9.50;8.60;;;;;;;24.44;56.07;96847.84;4988786;28;20544;-59
2021/07/21 09:53:07;;;;;;;11.00;9.80;;;;;;;24.54;54.74;96851.41;4989953;28;20425;-59
2021/07/21 09:55:35;;;;;;;12.17;9.27;;;;;;;24.64;55.36;96845.81;4996720;28;20960;-59
2021/07/21 09:58:08;;;;;;;10.03;9.00;;;;;;;24.64;57.53;96854.66;5010101;28;20442;-59
2021/07/21 10:00:37;;;;;;;10.70;9.63;;;;;;;24.40;57.26;96846.06;5009563;28;20415;-57
2021/07/21 10:03:14;;;;;;;11.17;9.40;;;;;;;24.70;55.55;96852.66;5009665;28;20415;-59
2021/07/21 10:05:57;;;;;;;10.80;9.33;;;;;;;24.76;55.52;96846.09;5009879;28;20470;-59
2021/07/21 10:08:27;;;;;;;12.20;9.50;;;;;;;24.90;55.07;96855.72;5007039;28;21015;-60
2021/07/21 10:10:52;;;;;;;10.63;9.63;;;;;;;25.10;55.55;96854.44;5017045;28;20819;-58
2021/07/21 10:13:18;;;;;;;9.77;8.80;;;;;;;25.23;55.89;96856.28;5016920;28;20419;-59
2021/07/21 10:15:45;;;;;;;9.73;8.70;;;;;;;25.16;54.44;96855.91;5017169;28;20228;-57
2021/07/21 10:18:17;;;;;;;11.37;9.70;;;;;;;25.28;53.68;96846.19;5016701;28;20192;-58
2021/07/21 10:20:44;;;;;;;10.20;9.17;;;;;;;25.31;52.82;96852.88;5006639;28;20425;-63
2021/07/21 10:23:11;;;;;;;10.47;9.47;;;;;;;25.35;52.63;96851.13;4997129;28;20420;-58
2021/07/21 10:25:37;;;;;;;9.57;8.40;;;;;;;25.53;52.89;96849.38;4993231;28;20487;-60
2021/07/21 10:28:05;;;;;;;9.77;8.63;;;;;;;25.67;52.29;96858.97;4992635;28;20457;-58
2021/07/21 10:30:32;;;;;;;9.50;8.60;;;;;;;25.91;53.08;96853.97;4981314;28;20750;-60
2021/07/21 10:32:58;;;;;;;11.17;10.07;;;;;;;26.03;52.66;96846.13;4988430;28;20503;-61
2021/07/21 10:35:25;;;;;;;9.17;8.37;;;;;;;26.19;52.55;96846.50;4988458;28;20444;-58
2021/07/21 10:37:52;;;;;;;10.80;8.93;;;;;;;26.14;51.16;96839.34;4985457;28;20486;-61
2021/07/21 10:40:22;;;;;;;10.60;9.30;;;;;;;26.21;52.33;96831.63;4989683;28;20425;-59
2021/07/21 10:42:51;;;;;;;10.53;9.53;;;;;;;26.25;52.35;96837.94;4988213;28;20421;-61
2021/07/21 10:45:19;;;;;;;9.67;8.67;;;;;;;26.38;51.46;96839.72;4988114;28;20452;-58
2021/07/21 10:47:59;;;;;;;9.53;8.50;;;;;;;26.48;50.64;96837.84;4988422;28;20453;-57
2021/07/21 10:50:42;;;;;;;10.43;9.00;;;;;;;26.55;50.05;96836.25;4988455;28;20428;-61
2021/07/21 10:59:23;;;;;;;9.97;8.97;;;;;;;26.98;51.76;96842.50;4955246;28;20405;-61
2021/07/21 11:01:58;;;;;;;10.40;9.17;;;;;;;27.00;49.06;96831.38;4987530;28;20427;-58
2021/07/21 11:04:41;;;;;;;9.70;8.80;;;;;;;27.23;48.82;96835.50;4984376;28;20280;-59
2021/07/21 11:07:06;;;;;;;10.27;8.77;;;;;;;27.32;48.96;96839.00;4992851;28;20502;-61
2021/07/21 11:09:34;;;;;;;9.73;8.83;;;;;;;27.47;49.88;96837.72;4986775;28;20500;-61
2021/07/21 11:12:00;;;;;;;10.17;9.27;;;;;;;27.52;48.51;96832.13;5016097;28;20169;-61
2021/07/21 11:14:29;;;;;;;9.80;8.90;;;;;;;27.29;47.63;96826.09;5015702;28;20562;-61
2021/07/21 11:17:08;;;;;;;11.07;9.50;;;;;;;27.25;47.91;96830.53;5016157;28;20203;-61
2021/07/21 11:19:43;;;;;;;10.50;9.37;;;;;;;27.56;49.32;96831.16;5015408;28;20400;-61
2021/07/21 11:22:23;;;;;;;10.10;9.10;;;;;;;27.70;49.01;96830.97;5016053;28;20418;-58
2021/07/21 11:25:12;;;;;;;10.13;9.17;;;;;;;27.52;48.05;96827.50;5001421;28;20444;-58
2021/07/21 11:27:37;;;;;;;16.17;8.83;;;;;;;27.67;48.27;96828.88;4996546;28;20483;-58
2021/07/21 11:30:04;;;;;;;10.30;9.40;;;;;;;27.71;46.73;96825.22;4996128;28;20959;-61
2021/07/21 11:32:30;;;;;;;11.33;9.77;;;;;;;27.83;47.40;96825.31;5001125;28;20544;-61
2021/07/21 11:34:56;;;;;;;10.70;9.70;;;;;;;27.99;47.29;96825.63;4995743;28;20428;-61
2021/07/21 11:37:32;;;;;;;10.90;9.90;;;;;;;28.00;45.64;96825.28;4996306;28;20169;-58